createdAt,value
2019-03-21T00:01:02.107Z,6.30
2019-03-21T00:03:32.231Z,6.30
2019-03-21T00:06:03.108Z,6.30
2019-03-21T00:08:33.137Z,6.30
2019-03-21T00:11:40.901Z,6.30
2019-03-21T00:14:31.923Z,6.30
2019-03-21T00:17:02.086Z,6.20
2019-03-21T00:19:32.599Z,6.10
2019-03-21T00:22:02.897Z,6.10
2019-03-21T00:24:32.944Z,6.00
2019-03-21T00:27:03.060Z,6.00
2019-03-21T00:29:33.131Z,6.00
2019-03-21T00:32:03.201Z,6.00
2019-03-21T00:34:33.524Z,6.00
2019-03-21T00:37:03.632Z,6.00
2019-03-21T00:39:33.888Z,5.90
2019-03-21T00:42:03.987Z,5.90
2019-03-21T00:44:34.060Z,5.80
2019-03-21T00:47:04.200Z,5.80
2019-03-21T00:49:34.271Z,5.70
2019-03-21T00:52:04.454Z,5.70
2019-03-21T00:54:34.580Z,5.60
2019-03-21T00:57:04.813Z,5.60
2019-03-21T00:59:34.916Z,5.60
2019-03-21T01:02:05.061Z,5.50
2019-03-21T01:04:36.041Z,5.50
2019-03-21T01:07:07.286Z,5.50
2019-03-21T01:09:37.918Z,5.50
2019-03-21T01:12:08.888Z,5.50
2019-03-21T01:14:39.370Z,5.50
2019-03-21T01:17:09.527Z,5.50
2019-03-21T01:19:40.105Z,5.60
2019-03-21T01:22:10.244Z,5.50
2019-03-21T01:24:40.493Z,5.50
2019-03-21T01:27:11.496Z,5.50
2019-03-21T01:29:41.807Z,5.50
2019-03-21T01:32:12.170Z,5.40
2019-03-21T01:34:42.294Z,5.40
2019-03-21T01:37:12.849Z,5.30
2019-03-21T01:39:43.490Z,5.30
2019-03-21T01:42:13.809Z,5.30
2019-03-21T01:44:44.371Z,5.20
2019-03-21T01:47:14.887Z,5.10
2019-03-21T01:49:45.060Z,5.10
2019-03-21T01:52:15.252Z,5.10
2019-03-21T01:54:45.583Z,5.10
2019-03-21T01:57:15.842Z,5.00
2019-03-21T01:59:47.368Z,5.00
2019-03-21T02:02:17.499Z,5.00
2019-03-21T02:04:47.572Z,5.00
2019-03-21T02:07:17.657Z,5.00
2019-03-21T02:09:47.758Z,4.90
2019-03-21T02:12:17.817Z,4.90
2019-03-21T02:14:51.972Z,4.90
2019-03-21T02:17:19.791Z,4.80
2019-03-21T02:19:49.929Z,4.80
2019-03-21T02:22:20.186Z,4.80
2019-03-21T02:24:50.333Z,4.70
2019-03-21T02:27:20.441Z,4.70
2019-03-21T02:29:50.759Z,4.70
2019-03-21T02:32:20.772Z,4.70
2019-03-21T02:34:50.881Z,4.70
2019-03-21T02:37:20.949Z,4.80
2019-03-21T02:39:59.444Z,4.70
2019-03-21T02:42:23.218Z,4.80
2019-03-21T02:45:07.215Z,4.70
2019-03-21T02:47:25.067Z,4.70
2019-03-21T02:49:55.164Z,4.70
2019-03-21T02:52:25.253Z,4.70
2019-03-21T02:54:55.384Z,4.60
2019-03-21T02:57:25.547Z,4.60
2019-03-21T02:59:55.726Z,4.60
2019-03-21T03:02:25.821Z,4.60
2019-03-21T03:04:55.881Z,4.60
2019-03-21T03:07:26.067Z,4.60
2019-03-21T03:09:56.172Z,4.50
2019-03-21T03:12:26.253Z,4.50
2019-03-21T03:14:56.652Z,4.50
2019-03-21T03:17:27.838Z,4.40
2019-03-21T03:19:58.095Z,4.40
2019-03-21T03:22:28.189Z,4.40
2019-03-21T03:24:58.269Z,4.40
2019-03-21T03:27:28.695Z,4.30
2019-03-21T03:29:59.010Z,4.30
2019-03-21T03:32:29.096Z,4.30
2019-03-21T03:34:59.564Z,4.30
2019-03-21T03:37:29.995Z,4.20
2019-03-21T03:40:01.369Z,4.20
2019-03-21T03:42:31.772Z,4.20
2019-03-21T03:45:02.911Z,4.20
2019-03-21T03:47:33.245Z,4.20
2019-03-21T03:50:03.536Z,4.10
2019-03-21T03:52:33.589Z,4.10
2019-03-21T03:55:04.005Z,4.10
2019-03-21T03:57:34.065Z,4.10
2019-03-21T04:00:04.246Z,4.20
2019-03-21T04:02:34.505Z,4.10
2019-03-21T04:05:05.348Z,4.10
2019-03-21T04:07:35.450Z,4.10
2019-03-21T04:10:06.964Z,4.10
2019-03-21T04:12:37.265Z,4.20
2019-03-21T04:15:08.163Z,4.20
2019-03-21T04:17:38.465Z,4.20
2019-03-21T04:20:10.668Z,4.20
2019-03-21T04:22:40.807Z,4.20
2019-03-21T04:25:12.605Z,4.20
2019-03-21T04:27:42.764Z,4.20
2019-03-21T04:30:14.008Z,4.20
2019-03-21T04:32:44.092Z,4.20
2019-03-21T04:35:14.404Z,4.20
2019-03-21T04:37:44.487Z,4.20
2019-03-21T04:40:14.922Z,4.20
2019-03-21T04:42:45.027Z,4.20
2019-03-21T04:45:17.382Z,4.20
2019-03-21T04:47:47.460Z,4.20
2019-03-21T04:50:20.237Z,4.10
2019-03-21T04:52:50.350Z,4.10
2019-03-21T04:55:20.469Z,4.10
2019-03-21T04:57:50.666Z,4.10
2019-03-21T05:00:26.629Z,4.10
2019-03-21T05:02:58.720Z,4.20
2019-03-21T05:05:28.817Z,4.20
2019-03-21T05:07:58.883Z,4.10
2019-03-21T05:10:28.969Z,4.20
2019-03-21T05:12:59.247Z,4.10
2019-03-21T05:15:31.962Z,4.10
2019-03-21T05:18:05.559Z,4.10
2019-03-21T05:20:35.725Z,4.10
2019-03-21T05:23:05.908Z,4.10
2019-03-21T05:25:36.023Z,4.10
2019-03-21T05:28:06.281Z,4.10
2019-03-21T05:30:43.120Z,4.10
2019-03-21T05:33:13.232Z,4.10
2019-03-21T05:35:43.472Z,4.10
2019-03-21T05:38:13.556Z,4.10
2019-03-21T05:40:44.266Z,4.10
2019-03-21T05:43:20.565Z,4.10
2019-03-21T05:45:52.874Z,4.10
2019-03-21T05:48:26.987Z,4.00
2019-03-21T05:50:57.889Z,4.00
2019-03-21T05:53:29.948Z,4.00
2019-03-21T05:56:02.797Z,4.00
2019-03-21T05:58:36.847Z,4.00
2019-03-21T06:01:07.259Z,3.90
2019-03-21T06:03:47.681Z,3.90
2019-03-21T06:06:28.255Z,3.90
2019-03-21T06:08:58.697Z,3.90
2019-03-21T06:11:36.426Z,3.90
2019-03-21T06:14:07.966Z,3.90
2019-03-21T06:16:39.180Z,4.00
2019-03-21T06:19:20.237Z,4.00
2019-03-21T06:22:15.681Z,4.00
2019-03-21T06:25:11.130Z,4.00
2019-03-21T06:27:41.613Z,4.10
2019-03-21T06:30:12.842Z,4.10
2019-03-21T06:32:43.510Z,4.10
2019-03-21T06:35:26.138Z,4.20
2019-03-21T06:37:57.214Z,4.20
2019-03-21T06:40:29.456Z,4.20
2019-03-21T06:43:01.877Z,4.30
2019-03-21T06:45:35.695Z,4.30
2019-03-21T06:48:06.916Z,4.30
2019-03-21T06:50:38.458Z,4.40
2019-03-21T06:53:09.041Z,4.40
2019-03-21T06:55:42.042Z,4.50
2019-03-21T06:58:13.565Z,4.60
2019-03-21T07:00:43.998Z,4.70
2019-03-21T07:03:18.951Z,4.70
2019-03-21T07:05:54.463Z,4.80
2019-03-21T07:08:24.499Z,4.80
2019-03-21T07:10:55.217Z,5.00
2019-03-21T07:13:26.914Z,5.00
2019-03-21T07:15:57.492Z,5.10
2019-03-21T07:18:28.270Z,5.20
2019-03-21T07:21:01.121Z,5.30
2019-03-21T07:23:32.036Z,5.30
2019-03-21T07:26:03.559Z,5.40
2019-03-21T07:28:38.557Z,5.50
2019-03-21T07:31:11.350Z,5.60
2019-03-21T07:33:42.334Z,5.70
2019-03-21T07:36:12.980Z,5.80
2019-03-21T07:38:44.567Z,5.80
2019-03-21T07:41:16.398Z,6.00
2019-03-21T07:43:46.863Z,6.10
2019-03-21T07:46:19.076Z,6.20
2019-03-21T07:48:49.647Z,6.30
2019-03-21T07:51:20.427Z,6.40
2019-03-21T07:53:51.886Z,6.50
2019-03-21T07:56:24.944Z,6.60
2019-03-21T07:58:57.907Z,6.70
2019-03-21T08:01:28.409Z,6.80
2019-03-21T08:03:58.615Z,6.90
2019-03-21T08:06:28.965Z,7.00
2019-03-21T08:08:59.190Z,7.10
2019-03-21T08:11:30.920Z,7.20
2019-03-21T08:14:01.105Z,7.30
2019-03-21T08:16:31.571Z,7.50
2019-03-21T08:19:01.875Z,7.50
2019-03-21T08:21:32.315Z,7.60
2019-03-21T08:24:02.713Z,7.70
2019-03-21T08:26:33.239Z,7.90
2019-03-21T08:29:03.445Z,8.00
2019-03-21T08:31:33.754Z,8.10
2019-03-21T08:34:03.968Z,8.30
2019-03-21T08:36:34.194Z,8.50
2019-03-21T08:39:06.330Z,8.60
2019-03-21T08:41:36.719Z,8.70
2019-03-21T08:44:07.083Z,8.70
2019-03-21T08:46:37.232Z,8.90
2019-03-21T08:49:07.480Z,9.10
2019-03-21T08:51:37.774Z,9.20
2019-03-21T08:54:07.976Z,9.40
2019-03-21T08:56:38.446Z,9.50
2019-03-21T08:59:09.300Z,9.60
2019-03-21T09:01:39.523Z,9.60
2019-03-21T09:04:09.704Z,9.80
2019-03-21T09:06:40.263Z,10.00
2019-03-21T09:09:11.464Z,10.20
2019-03-21T09:11:42.045Z,10.40
2019-03-21T09:14:12.266Z,10.50
2019-03-21T09:16:42.635Z,10.50
2019-03-21T09:19:12.903Z,10.70
2019-03-21T09:21:43.326Z,10.80
2019-03-21T09:24:13.519Z,11.00
2019-03-21T09:26:44.947Z,11.20
2019-03-21T09:29:15.555Z,11.50
2019-03-21T09:31:45.847Z,11.60
2019-03-21T09:34:16.102Z,11.80
2019-03-21T09:36:46.312Z,12.00
2019-03-21T09:39:16.558Z,12.10
2019-03-21T09:41:46.837Z,12.40
2019-03-21T09:44:24.577Z,13.30
2019-03-21T09:46:54.910Z,14.00
2019-03-21T09:49:25.287Z,15.10
2019-03-21T09:51:55.532Z,17.10
2019-03-21T09:54:25.896Z,16.90
2019-03-21T09:56:56.072Z,17.50
2019-03-21T09:59:26.375Z,19.10
2019-03-21T10:01:56.664Z,18.30
2019-03-21T10:04:27.030Z,18.20
2019-03-21T10:06:57.290Z,18.70
2019-03-21T10:09:27.662Z,18.20
2019-03-21T10:11:57.950Z,19.10
2019-03-21T10:14:28.325Z,20.40
2019-03-21T10:16:58.516Z,21.30
2019-03-21T10:19:29.584Z,20.20
2019-03-21T10:21:59.809Z,20.60
2019-03-21T10:24:30.384Z,21.70
2019-03-21T10:27:01.015Z,22.00
2019-03-21T10:29:31.222Z,21.30
2019-03-21T10:32:01.378Z,20.50
2019-03-21T10:34:31.793Z,21.30
2019-03-21T10:37:02.072Z,22.40
2019-03-21T10:39:32.337Z,22.60
2019-03-21T10:42:02.503Z,22.80
2019-03-21T10:44:32.741Z,22.70
2019-03-21T10:47:03.157Z,23.60
2019-03-21T10:49:33.436Z,24.00
2019-03-21T10:52:03.728Z,24.10
2019-03-21T10:54:34.098Z,24.10
2019-03-21T10:57:04.352Z,23.30
2019-03-21T10:59:34.712Z,23.20
2019-03-21T11:02:07.620Z,23.60
2019-03-21T11:04:36.860Z,24.60
2019-03-21T11:07:04.803Z,25.60
2019-03-21T11:09:34.966Z,24.90
2019-03-21T11:12:05.281Z,23.70
2019-03-21T11:14:35.831Z,24.90
2019-03-21T11:17:06.026Z,25.50
2019-03-21T11:19:36.436Z,25.50
2019-03-21T11:22:06.843Z,25.90
2019-03-21T11:24:37.311Z,26.60
2019-03-21T11:27:07.757Z,25.70
2019-03-21T11:29:38.332Z,26.40
2019-03-21T11:32:08.599Z,27.50
2019-03-21T11:34:38.891Z,27.40
2019-03-21T11:37:09.700Z,28.40
2019-03-21T11:39:39.874Z,28.40
2019-03-21T11:42:10.094Z,28.10
2019-03-21T11:44:40.336Z,28.00
2019-03-21T11:47:10.906Z,28.00
2019-03-21T11:49:41.265Z,26.80
2019-03-21T11:52:18.147Z,27.50
2019-03-21T11:54:43.224Z,27.00
2019-03-21T11:57:13.445Z,26.90
2019-03-21T11:59:51.511Z,27.10
2019-03-21T12:02:26.507Z,27.90
2019-03-21T12:04:47.816Z,28.50
2019-03-21T12:07:18.121Z,27.80
2019-03-21T12:09:48.531Z,27.00
2019-03-21T12:12:18.907Z,25.70
2019-03-21T12:14:51.223Z,26.10
2019-03-21T12:17:21.701Z,28.20
2019-03-21T12:19:52.052Z,28.90
2019-03-21T12:22:30.023Z,28.50
2019-03-21T12:24:54.292Z,28.50
2019-03-21T12:27:24.800Z,28.40
2019-03-21T12:29:55.707Z,28.20
2019-03-21T12:32:27.813Z,28.30
2019-03-21T12:34:58.113Z,28.60
2019-03-21T12:37:28.403Z,28.40
2019-03-21T12:39:58.619Z,28.60
2019-03-21T12:42:28.944Z,29.60
2019-03-21T12:44:59.323Z,29.40
2019-03-21T12:47:31.448Z,29.50
2019-03-21T12:50:01.161Z,29.10
2019-03-21T12:52:40.978Z,29.10
2019-03-21T12:55:03.799Z,29.30
2019-03-21T12:57:34.143Z,29.10
2019-03-21T13:00:05.546Z,28.70
2019-03-21T13:02:35.824Z,27.90
2019-03-21T13:05:07.466Z,27.40
2019-03-21T13:07:37.761Z,27.10
2019-03-21T13:10:08.066Z,27.10
2019-03-21T13:12:38.425Z,27.50
2019-03-21T13:15:08.808Z,27.90
2019-03-21T13:17:39.252Z,29.00
2019-03-21T13:20:09.967Z,29.50
2019-03-21T13:22:40.557Z,30.80
2019-03-21T13:25:12.315Z,31.00
2019-03-21T13:27:46.502Z,31.60
2019-03-21T13:30:17.230Z,31.40
2019-03-21T13:33:00.179Z,31.20
2019-03-21T13:35:42.224Z,30.10
2019-03-21T13:38:12.740Z,28.70
2019-03-21T13:40:43.090Z,28.50
2019-03-21T13:43:13.586Z,28.80
2019-03-21T13:45:45.146Z,27.80
2019-03-21T13:48:15.533Z,28.40
2019-03-21T13:50:45.857Z,28.90
2019-03-21T13:53:19.014Z,29.10
2019-03-21T13:55:48.293Z,30.60
2019-03-21T13:58:18.673Z,30.60
2019-03-21T14:00:49.431Z,29.30
2019-03-21T14:03:26.031Z,28.30
2019-03-21T14:05:56.879Z,29.00
2019-03-21T14:08:27.867Z,29.30
2019-03-21T14:11:03.371Z,30.30
2019-03-21T14:13:33.857Z,30.10
2019-03-21T14:16:05.195Z,30.10
2019-03-21T14:18:35.658Z,29.30
2019-03-21T14:21:06.140Z,28.30
2019-03-21T14:23:43.313Z,28.10
2019-03-21T14:26:08.373Z,27.40
2019-03-21T14:28:38.619Z,27.00
2019-03-21T14:31:08.797Z,26.90
2019-03-21T14:33:39.646Z,27.70
2019-03-21T14:36:10.031Z,28.50
2019-03-21T14:38:40.242Z,29.90
2019-03-21T14:41:10.530Z,29.50
2019-03-21T14:43:41.012Z,28.30
2019-03-21T14:46:11.343Z,28.80
2019-03-21T14:48:41.674Z,28.90
2019-03-21T14:51:12.063Z,28.00
2019-03-21T14:53:42.275Z,29.10
2019-03-21T14:56:12.463Z,30.40
2019-03-21T14:58:42.784Z,30.60
2019-03-21T15:01:12.944Z,29.00
2019-03-21T15:03:43.395Z,28.30
2019-03-21T15:06:13.787Z,27.60
2019-03-21T15:08:44.226Z,27.10
2019-03-21T15:11:17.313Z,27.20
2019-03-21T15:13:46.785Z,27.10
2019-03-21T15:16:17.016Z,25.80
2019-03-21T15:18:47.995Z,25.60
2019-03-21T15:21:18.185Z,25.70
2019-03-21T15:23:58.753Z,25.80
2019-03-21T15:26:29.760Z,25.40
2019-03-21T15:29:00.551Z,25.90
2019-03-21T15:31:31.486Z,27.40
2019-03-21T15:34:02.566Z,27.30
2019-03-21T15:36:34.342Z,26.80
2019-03-21T15:39:07.920Z,26.80
2019-03-21T15:41:39.236Z,27.20
2019-03-21T15:44:10.355Z,27.00
2019-03-21T15:46:41.212Z,27.00
2019-03-21T15:49:12.988Z,26.50
2019-03-21T15:51:44.296Z,25.80
2019-03-21T15:54:14.540Z,25.70
2019-03-21T15:56:44.863Z,26.20
2019-03-21T15:59:15.272Z,26.70
2019-03-21T16:01:45.623Z,26.90
2019-03-21T16:04:15.831Z,26.60
2019-03-21T16:06:46.155Z,25.90
2019-03-21T16:09:16.484Z,24.60
2019-03-21T16:11:46.873Z,23.70
2019-03-21T16:14:17.669Z,23.30
2019-03-21T16:16:47.971Z,22.80
2019-03-21T16:19:18.392Z,21.90
2019-03-21T16:21:48.645Z,21.00
2019-03-21T16:24:18.914Z,20.70
2019-03-21T16:26:49.172Z,20.40
2019-03-21T16:29:19.552Z,20.30
2019-03-21T16:31:49.774Z,20.00
2019-03-21T16:34:20.135Z,19.70
2019-03-21T16:36:50.499Z,19.50
2019-03-21T16:39:20.704Z,19.40
2019-03-21T16:41:51.286Z,19.20
2019-03-21T16:44:21.686Z,19.00
2019-03-21T16:46:52.455Z,18.90
2019-03-21T16:49:22.994Z,18.70
2019-03-21T16:51:53.514Z,18.60
2019-03-21T16:54:23.869Z,18.40
2019-03-21T16:56:54.407Z,18.20
2019-03-21T16:59:24.966Z,18.10
2019-03-21T17:01:55.530Z,18.10
2019-03-21T17:04:26.003Z,18.20
2019-03-21T17:06:56.601Z,18.10
2019-03-21T17:09:27.233Z,17.90
2019-03-21T17:11:58.050Z,18.10
2019-03-21T17:14:28.687Z,18.30
2019-03-21T17:16:59.521Z,18.10
2019-03-21T17:19:30.511Z,18.00
2019-03-21T17:22:01.215Z,18.10
2019-03-21T17:24:31.967Z,18.10
2019-03-21T17:27:02.655Z,17.90
2019-03-21T17:29:33.338Z,17.70
2019-03-21T17:32:03.822Z,17.40
2019-03-21T17:34:34.695Z,17.20
2019-03-21T17:37:05.903Z,17.00
2019-03-21T17:39:36.458Z,16.90
2019-03-21T17:42:07.354Z,16.80
2019-03-21T17:44:38.218Z,16.70
2019-03-21T17:47:08.842Z,16.60
2019-03-21T17:49:39.543Z,16.60
2019-03-21T17:52:10.191Z,16.50
2019-03-21T17:54:41.925Z,16.40
2019-03-21T17:57:34.770Z,16.40
2019-03-21T18:00:03.728Z,16.40
2019-03-21T18:02:34.496Z,16.30
2019-03-21T18:05:05.936Z,16.30
2019-03-21T18:07:37.186Z,16.20
2019-03-21T18:10:10.413Z,16.10
2019-03-21T18:12:41.264Z,16.10
2019-03-21T18:15:12.412Z,16.00
2019-03-21T18:17:45.701Z,16.00
2019-03-21T18:20:17.308Z,15.90
2019-03-21T18:22:48.433Z,15.70
2019-03-21T18:25:19.715Z,15.50
2019-03-21T18:27:50.489Z,15.40
2019-03-21T18:30:23.648Z,15.20
2019-03-21T18:32:55.623Z,15.10
2019-03-21T18:35:27.399Z,15.00
2019-03-21T18:37:58.966Z,14.80
2019-03-21T18:40:32.867Z,14.70
2019-03-21T18:43:06.275Z,14.70
2019-03-21T18:45:37.290Z,14.60
2019-03-21T18:48:08.412Z,14.40
2019-03-21T18:50:39.361Z,14.20
2019-03-21T18:53:16.678Z,14.10
2019-03-21T18:55:47.932Z,14.10
2019-03-21T18:58:18.865Z,14.00
2019-03-21T19:00:50.305Z,13.90
2019-03-21T19:03:21.142Z,13.90
2019-03-21T19:05:58.749Z,14.00
2019-03-21T19:08:27.580Z,14.10
2019-03-21T19:10:58.843Z,14.20
2019-03-21T19:13:33.231Z,14.30
2019-03-21T19:16:04.427Z,14.40
2019-03-21T19:18:35.743Z,14.30
2019-03-21T19:21:09.638Z,14.30
2019-03-21T19:23:40.883Z,14.10
2019-03-21T19:26:14.135Z,14.00
2019-03-21T19:28:45.290Z,13.80
2019-03-21T19:31:16.041Z,13.70
2019-03-21T19:33:48.306Z,13.50
2019-03-21T19:36:19.671Z,13.20
2019-03-21T19:38:53.235Z,13.10
2019-03-21T19:41:28.674Z,12.90
2019-03-21T19:44:00.473Z,12.80
2019-03-21T19:46:31.282Z,12.70
2019-03-21T19:49:02.051Z,12.60
2019-03-21T19:51:33.101Z,12.50
2019-03-21T19:54:11.311Z,12.40
2019-03-21T19:56:43.397Z,12.30
2019-03-21T19:59:15.684Z,12.20
2019-03-21T20:01:50.589Z,12.10
2019-03-21T20:04:21.430Z,12.00
2019-03-21T20:06:56.692Z,11.90
2019-03-21T20:09:27.782Z,11.80
2019-03-21T20:11:58.785Z,11.70
2019-03-21T20:14:31.936Z,11.60
2019-03-21T20:17:02.321Z,11.50
2019-03-21T20:19:33.814Z,11.40
2019-03-21T20:22:08.544Z,11.40
2019-03-21T20:24:39.556Z,11.30
2019-03-21T20:27:11.730Z,11.20
2019-03-21T20:29:42.562Z,11.10
2019-03-21T20:32:20.395Z,11.10
2019-03-21T20:34:46.166Z,11.10
2019-03-21T20:37:17.239Z,11.00
2019-03-21T20:39:47.823Z,11.00
2019-03-21T20:42:22.061Z,11.00
2019-03-21T20:44:58.400Z,10.90
2019-03-21T20:47:29.087Z,10.90
2019-03-21T20:50:01.230Z,10.80
2019-03-21T20:52:32.099Z,10.70
2019-03-21T20:55:04.141Z,10.70
2019-03-21T20:57:34.974Z,10.60
2019-03-21T21:00:08.991Z,10.60
2019-03-21T21:02:45.018Z,10.50
2019-03-21T21:05:19.291Z,10.40
2019-03-21T21:07:54.551Z,10.40
2019-03-21T21:10:25.502Z,10.30
2019-03-21T21:12:58.772Z,10.30
2019-03-21T21:15:31.816Z,10.30
2019-03-21T21:18:06.403Z,10.30
2019-03-21T21:20:37.557Z,10.30
2019-03-21T21:23:11.249Z,10.30
2019-03-21T21:25:44.385Z,10.30
2019-03-21T21:28:15.016Z,10.30
2019-03-21T21:30:52.414Z,10.20
2019-03-21T21:33:23.287Z,10.20
2019-03-21T21:35:54.451Z,10.10
2019-03-21T21:38:27.530Z,10.00
2019-03-21T21:41:03.715Z,10.00
2019-03-21T21:43:38.554Z,9.90
2019-03-21T21:46:09.143Z,9.90
2019-03-21T21:48:40.549Z,9.80
2019-03-21T21:51:10.902Z,9.80
2019-03-21T21:53:42.315Z,9.80
2019-03-21T21:56:17.671Z,9.80
2019-03-21T21:58:47.963Z,9.70
2019-03-21T22:01:21.826Z,9.70
2019-03-21T22:04:04.040Z,9.70
2019-03-21T22:06:32.970Z,9.60
2019-03-21T22:09:06.387Z,9.50
2019-03-21T22:11:37.167Z,9.40
2019-03-21T22:14:10.294Z,9.40
2019-03-21T22:16:40.650Z,9.30
2019-03-21T22:19:11.599Z,9.30
2019-03-21T22:21:42.392Z,9.20
2019-03-21T22:24:12.722Z,9.20
2019-03-21T22:26:46.441Z,9.20
2019-03-21T22:29:18.619Z,9.10
2019-03-21T22:31:50.052Z,9.10
2019-03-21T22:34:22.653Z,9.10
2019-03-21T22:36:52.736Z,9.00
2019-03-21T22:39:23.155Z,9.00
2019-03-21T22:41:53.594Z,8.90
2019-03-21T22:44:24.123Z,8.90
2019-03-21T22:46:56.605Z,8.90
2019-03-21T22:49:26.930Z,8.80
2019-03-21T22:51:57.706Z,8.70
2019-03-21T22:54:28.114Z,8.70
2019-03-21T22:56:58.483Z,8.60
2019-03-21T22:59:34.573Z,8.60
2019-03-21T23:02:05.416Z,8.50
2019-03-21T23:04:36.032Z,8.50
2019-03-21T23:07:06.416Z,8.40
2019-03-21T23:09:44.575Z,8.30
2019-03-21T23:12:28.127Z,8.30
2019-03-21T23:14:58.169Z,8.30
2019-03-21T23:17:30.530Z,8.30
2019-03-21T23:20:00.634Z,8.20
2019-03-21T23:22:31.354Z,8.20
2019-03-21T23:25:05.028Z,8.20
2019-03-21T23:27:36.830Z,8.20
2019-03-21T23:30:08.853Z,8.20
2019-03-21T23:32:42.310Z,8.20
2019-03-21T23:35:12.648Z,8.10
2019-03-21T23:37:42.725Z,8.00
2019-03-21T23:40:13.029Z,8.00
2019-03-21T23:42:43.426Z,8.00
2019-03-21T23:45:13.814Z,8.10
2019-03-21T23:47:43.819Z,8.00
2019-03-21T23:50:13.889Z,8.00
2019-03-21T23:52:44.203Z,7.90
2019-03-21T23:55:14.875Z,7.90
2019-03-21T23:57:44.950Z,7.80
